Terminal Aerodrome Forecast
Issued by NWS

Home | Current Version | Previous Version | Text Only | Print | Product List | Glossary Off
Versions: 1 2 3 4 5 6 7 8 9 10 11 12 13 14 15 16 17 18 19 20

000
FTUS43 KMPX 222300
TAFRNH
TAF
KRNH 222336Z 2300/2324 16011KT P6SM SCT060 BKN080
     FM230600 17008KT 6SM -SHRA BR SCT020 OVC040
      TEMPO 2306/2310 4SM SHRA BR OVC020
     FM231000 18004KT 4SM BR OVC015
     FM231600 23005KT P6SM SCT030=

USA.gov is the U.S. government's official web portal to all federal, state and local government web resources and services.